sensor_id;sensor_type;location;lat;lon;timestamp;pressure;altitude;pressure_sealevel;temperature;humidity
56821;BME280;42702;50.178;20.992;2022-08-19T00:00:09;98874.63;;;22.91;65.59
56821;BME280;42702;50.178;20.992;2022-08-19T00:02:58;98873.06;;;22.87;65.73
56821;BME280;42702;50.178;20.992;2022-08-19T00:05:26;98873.40;;;22.88;65.65
56821;BME280;42702;50.178;20.992;2022-08-19T00:10:36;98872.13;;;22.91;65.82
56821;BME280;42702;50.178;20.992;2022-08-19T00:13:04;98867.01;;;22.88;65.88
56821;BME280;42702;50.178;20.992;2022-08-19T00:15:33;98863.92;;;22.86;65.98
56821;BME280;42702;50.178;20.992;2022-08-19T00:18:01;98864.30;;;22.86;66.02
56821;BME280;42702;50.178;20.992;2022-08-19T00:20:29;98862.27;;;22.81;65.86
56821;BME280;42702;50.178;20.992;2022-08-19T00:22:58;98862.39;;;22.79;66.08
56821;BME280;42702;50.178;20.992;2022-08-19T00:25:26;98854.23;;;22.76;66.13
56821;BME280;42702;50.178;20.992;2022-08-19T00:27:57;98859.27;;;22.72;66.29
56821;BME280;42702;50.178;20.992;2022-08-19T00:30:28;98858.63;;;22.71;66.28
56821;BME280;42702;50.178;20.992;2022-08-19T00:32:57;98857.83;;;22.75;66.26
56821;BME280;42702;50.178;20.992;2022-08-19T00:35:25;98857.27;;;22.76;66.34
56821;BME280;42702;50.178;20.992;2022-08-19T00:37:55;98857.41;;;22.73;66.41
56821;BME280;42702;50.178;20.992;2022-08-19T00:40:24;98860.29;;;22.76;66.50
56821;BME280;42702;50.178;20.992;2022-08-19T00:42:52;98856.77;;;22.78;66.45
56821;BME280;42702;50.178;20.992;2022-08-19T00:45:24;98854.25;;;22.76;66.39
56821;BME280;42702;50.178;20.992;2022-08-19T00:47:53;98856.59;;;22.72;66.50
56821;BME280;42702;50.178;20.992;2022-08-19T00:50:22;98857.44;;;22.67;66.51
56821;BME280;42702;50.178;20.992;2022-08-19T00:52:51;98864.92;;;22.64;66.48
56821;BME280;42702;50.178;20.992;2022-08-19T00:55:23;98863.85;;;22.64;66.69
56821;BME280;42702;50.178;20.992;2022-08-19T00:57:56;98856.91;;;22.67;66.51
56821;BME280;42702;50.178;20.992;2022-08-19T01:00:27;98857.75;;;22.65;66.64
56821;BME280;42702;50.178;20.992;2022-08-19T01:02:56;98861.35;;;22.62;66.74
56821;BME280;42702;50.178;20.992;2022-08-19T01:05:26;98856.09;;;22.61;66.86
56821;BME280;42702;50.178;20.992;2022-08-19T01:07:59;98855.61;;;22.63;66.94
56821;BME280;42702;50.178;20.992;2022-08-19T01:10:31;98851.16;;;22.66;66.94
56821;BME280;42702;50.178;20.992;2022-08-19T01:13:04;98846.77;;;22.67;66.97
56821;BME280;42702;50.178;20.992;2022-08-19T01:15:35;98850.42;;;22.66;66.91
56821;BME280;42702;50.178;20.992;2022-08-19T01:18:09;98854.58;;;22.65;67.04
56821;BME280;42702;50.178;20.992;2022-08-19T01:20:39;98853.77;;;22.69;66.87
56821;BME280;42702;50.178;20.992;2022-08-19T01:23:08;98857.59;;;22.68;66.85
56821;BME280;42702;50.178;20.992;2022-08-19T01:25:49;98853.29;;;22.63;67.01
56821;BME280;42702;50.178;20.992;2022-08-19T01:28:25;98853.05;;;22.58;67.24
56821;BME280;42702;50.178;20.992;2022-08-19T01:31:01;98847.92;;;22.54;67.18
56821;BME280;42702;50.178;20.992;2022-08-19T01:33:34;98848.05;;;22.50;67.23
56821;BME280;42702;50.178;20.992;2022-08-19T01:36:24;98846.54;;;22.51;67.40
56821;BME280;42702;50.178;20.992;2022-08-19T01:38:55;98845.11;;;22.48;67.34
56821;BME280;42702;50.178;20.992;2022-08-19T01:41:24;98840.59;;;22.44;67.42
56821;BME280;42702;50.178;20.992;2022-08-19T01:43:53;98839.40;;;22.43;67.57
56821;BME280;42702;50.178;20.992;2022-08-19T01:46:42;98836.48;;;22.38;67.66
56821;BME280;42702;50.178;20.992;2022-08-19T01:49:11;98838.86;;;22.34;67.82
56821;BME280;42702;50.178;20.992;2022-08-19T01:51:39;98836.61;;;22.31;67.88
56821;BME280;42702;50.178;20.992;2022-08-19T01:54:09;98836.86;;;22.30;67.87
56821;BME280;42702;50.178;20.992;2022-08-19T01:56:38;98832.27;;;22.29;68.03
56821;BME280;42702;50.178;20.992;2022-08-19T01:59:16;98832.69;;;22.28;68.02
56821;BME280;42702;50.178;20.992;2022-08-19T02:01:45;98826.20;;;22.27;67.93
56821;BME280;42702;50.178;20.992;2022-08-19T02:04:13;98823.86;;;22.27;68.18
56821;BME280;42702;50.178;20.992;2022-08-19T02:06:42;98825.02;;;22.25;68.13
56821;BME280;42702;50.178;20.992;2022-08-19T02:09:10;98822.40;;;22.21;68.38
56821;BME280;42702;50.178;20.992;2022-08-19T02:11:38;98823.92;;;22.19;68.38
56821;BME280;42702;50.178;20.992;2022-08-19T02:14:07;98820.13;;;22.21;68.47
56821;BME280;42702;50.178;20.992;2022-08-19T02:16:37;98817.80;;;22.18;68.54
56821;BME280;42702;50.178;20.992;2022-08-19T02:19:06;98817.14;;;22.14;68.46
56821;BME280;42702;50.178;20.992;2022-08-19T02:21:35;98817.40;;;22.13;68.53
56821;BME280;42702;50.178;20.992;2022-08-19T02:24:03;98816.67;;;22.13;68.40
56821;BME280;42702;50.178;20.992;2022-08-19T02:26:33;98816.23;;;22.12;68.55
56821;BME280;42702;50.178;20.992;2022-08-19T02:29:01;98812.70;;;22.11;68.86
56821;BME280;42702;50.178;20.992;2022-08-19T02:31:29;98815.16;;;22.12;68.68
56821;BME280;42702;50.178;20.992;2022-08-19T02:33:58;98812.11;;;22.12;68.72
56821;BME280;42702;50.178;20.992;2022-08-19T02:36:28;98807.29;;;22.10;68.74
56821;BME280;42702;50.178;20.992;2022-08-19T02:39:14;98806.91;;;22.04;69.01
56821;BME280;42702;50.178;20.992;2022-08-19T02:41:43;98803.34;;;22.02;68.83
56821;BME280;42702;50.178;20.992;2022-08-19T02:44:11;98798.25;;;22.01;68.78
56821;BME280;42702;50.178;20.992;2022-08-19T02:47:00;98796.91;;;22.00;69.14
56821;BME280;42702;50.178;20.992;2022-08-19T02:49:39;98796.85;;;21.95;69.02
56821;BME280;42702;50.178;20.992;2022-08-19T02:52:07;98797.21;;;21.95;69.30
56821;BME280;42702;50.178;20.992;2022-08-19T02:54:35;98799.28;;;21.99;69.35
56821;BME280;42702;50.178;20.992;2022-08-19T02:57:04;98801.45;;;22.01;69.21
56821;BME280;42702;50.178;20.992;2022-08-19T02:59:33;98801.75;;;22.02;69.15
56821;BME280;42702;50.178;20.992;2022-08-19T03:02:02;98803.91;;;22.04;69.09
56821;BME280;42702;50.178;20.992;2022-08-19T03:04:31;98804.26;;;22.04;68.95
56821;BME280;42702;50.178;20.992;2022-08-19T03:06:59;98808.21;;;22.04;69.20
56821;BME280;42702;50.178;20.992;2022-08-19T03:09:37;98812.25;;;22.04;69.14
56821;BME280;42702;50.178;20.992;2022-08-19T03:12:06;98814.83;;;22.06;69.20
56821;BME280;42702;50.178;20.992;2022-08-19T03:14:35;98814.55;;;22.04;69.03
56821;BME280;42702;50.178;20.992;2022-08-19T03:17:04;98814.69;;;21.99;69.25
56821;BME280;42702;50.178;20.992;2022-08-19T03:19:32;98819.19;;;21.95;69.35
56821;BME280;42702;50.178;20.992;2022-08-19T03:22:00;98818.44;;;21.96;69.24
56821;BME280;42702;50.178;20.992;2022-08-19T03:24:28;98816.15;;;21.99;69.23
56821;BME280;42702;50.178;20.992;2022-08-19T03:26:57;98820.25;;;21.95;69.35
56821;BME280;42702;50.178;20.992;2022-08-19T03:29:27;98822.30;;;21.96;69.50
56821;BME280;42702;50.178;20.992;2022-08-19T03:32:04;98821.52;;;21.95;69.33
56821;BME280;42702;50.178;20.992;2022-08-19T03:34:34;98822.93;;;21.92;69.42
56821;BME280;42702;50.178;20.992;2022-08-19T03:37:09;98823.71;;;21.88;69.53
56821;BME280;42702;50.178;20.992;2022-08-19T03:39:41;98829.48;;;21.86;69.80
56821;BME280;42702;50.178;20.992;2022-08-19T03:42:10;98830.67;;;21.87;69.65
56821;BME280;42702;50.178;20.992;2022-08-19T03:44:59;98834.06;;;21.90;69.55
56821;BME280;42702;50.178;20.992;2022-08-19T03:47:27;98834.67;;;21.88;69.56
56821;BME280;42702;50.178;20.992;2022-08-19T03:49:55;98838.67;;;21.90;69.83
56821;BME280;42702;50.178;20.992;2022-08-19T03:52:23;98838.61;;;21.91;69.64
56821;BME280;42702;50.178;20.992;2022-08-19T03:54:51;98837.21;;;21.90;69.73
56821;BME280;42702;50.178;20.992;2022-08-19T03:57:20;98833.46;;;21.91;69.89
56821;BME280;42702;50.178;20.992;2022-08-19T03:59:58;98835.39;;;21.91;69.67
56821;BME280;42702;50.178;20.992;2022-08-19T04:02:40;98843.94;;;21.94;69.68
56821;BME280;42702;50.178;20.992;2022-08-19T04:05:28;98855.39;;;21.95;69.84
56821;BME280;42702;50.178;20.992;2022-08-19T04:07:56;98864.46;;;21.95;69.94
56821;BME280;42702;50.178;20.992;2022-08-19T04:10:27;98870.89;;;21.97;69.93
56821;BME280;42702;50.178;20.992;2022-08-19T04:12:56;98871.80;;;21.99;69.74
56821;BME280;42702;50.178;20.992;2022-08-19T04:15:24;98877.33;;;22.02;70.05
56821;BME280;42702;50.178;20.992;2022-08-19T04:17:52;98881.22;;;22.05;69.77
56821;BME280;42702;50.178;20.992;2022-08-19T04:20:20;98877.23;;;22.04;69.60
56821;BME280;42702;50.178;20.992;2022-08-19T04:22:49;98885.32;;;22.08;69.55
56821;BME280;42702;50.178;20.992;2022-08-19T04:25:17;98887.02;;;22.09;69.60
56821;BME280;42702;50.178;20.992;2022-08-19T04:27:45;98888.85;;;22.11;69.64
56821;BME280;42702;50.178;20.992;2022-08-19T04:30:14;98882.23;;;22.15;69.74
56821;BME280;42702;50.178;20.992;2022-08-19T04:32:42;98877.23;;;22.16;69.48
56821;BME280;42702;50.178;20.992;2022-08-19T04:35:11;98868.87;;;22.13;69.41
56821;BME280;42702;50.178;20.992;2022-08-19T04:37:44;98859.83;;;22.10;69.49
56821;BME280;42702;50.178;20.992;2022-08-19T04:40:12;98861.13;;;22.12;69.61
56821;BME280;42702;50.178;20.992;2022-08-19T04:42:59;98857.29;;;22.17;69.54
56821;BME280;42702;50.178;20.992;2022-08-19T04:45:28;98861.86;;;22.20;69.65
56821;BME280;42702;50.178;20.992;2022-08-19T04:48:06;98863.67;;;22.23;69.45
56821;BME280;42702;50.178;20.992;2022-08-19T04:50:56;98863.17;;;22.22;69.34
56821;BME280;42702;50.178;20.992;2022-08-19T04:53:30;98864.63;;;22.22;69.32
56821;BME280;42702;50.178;20.992;2022-08-19T04:56:10;98867.91;;;22.24;69.32
56821;BME280;42702;50.178;20.992;2022-08-19T04:58:41;98867.88;;;22.24;69.39
56821;BME280;42702;50.178;20.992;2022-08-19T05:01:17;98864.20;;;22.26;69.27
56821;BME280;42702;50.178;20.992;2022-08-19T05:03:46;98854.61;;;22.32;69.28
56821;BME280;42702;50.178;20.992;2022-08-19T05:06:16;98856.36;;;22.33;69.18
56821;BME280;42702;50.178;20.992;2022-08-19T05:08:45;98851.75;;;22.33;69.35
56821;BME280;42702;50.178;20.992;2022-08-19T05:11:21;98846.90;;;22.34;69.21
56821;BME280;42702;50.178;20.992;2022-08-19T05:13:53;98856.02;;;22.35;69.23
56821;BME280;42702;50.178;20.992;2022-08-19T05:16:24;98862.29;;;22.40;69.33
56821;BME280;42702;50.178;20.992;2022-08-19T05:18:53;98868.60;;;22.42;69.21
56821;BME280;42702;50.178;20.992;2022-08-19T05:21:41;98871.98;;;22.47;69.28
56821;BME280;42702;50.178;20.992;2022-08-19T05:24:28;98871.19;;;22.58;69.09
56821;BME280;42702;50.178;20.992;2022-08-19T05:26:57;98869.53;;;22.62;69.12
56821;BME280;42702;50.178;20.992;2022-08-19T05:29:27;98860.71;;;22.66;69.11
56821;BME280;42702;50.178;20.992;2022-08-19T05:32:04;98858.77;;;22.69;68.94
56821;BME280;42702;50.178;20.992;2022-08-19T05:34:32;98856.32;;;22.71;68.79
56821;BME280;42702;50.178;20.992;2022-08-19T05:37:02;98853.37;;;22.76;68.96
56821;BME280;42702;50.178;20.992;2022-08-19T05:39:34;98847.54;;;22.78;69.08
56821;BME280;42702;50.178;20.992;2022-08-19T05:42:06;98836.84;;;22.79;68.95
56821;BME280;42702;50.178;20.992;2022-08-19T05:44:37;98835.88;;;22.83;69.02
56821;BME280;42702;50.178;20.992;2022-08-19T05:47:07;98843.13;;;22.89;68.86
56821;BME280;42702;50.178;20.992;2022-08-19T05:49:36;98853.77;;;22.92;68.88
56821;BME280;42702;50.178;20.992;2022-08-19T05:52:07;98852.14;;;22.92;68.78
56821;BME280;42702;50.178;20.992;2022-08-19T05:54:39;98857.23;;;22.96;68.77
56821;BME280;42702;50.178;20.992;2022-08-19T05:57:09;98852.99;;;23.02;68.87
56821;BME280;42702;50.178;20.992;2022-08-19T05:59:40;98863.38;;;23.06;68.69
56821;BME280;42702;50.178;20.992;2022-08-19T06:02:08;98867.55;;;23.11;68.69
56821;BME280;42702;50.178;20.992;2022-08-19T06:04:36;98871.39;;;23.12;68.48
56821;BME280;42702;50.178;20.992;2022-08-19T06:07:05;98878.51;;;23.14;68.55
56821;BME280;42702;50.178;20.992;2022-08-19T06:09:40;98880.39;;;23.21;68.36
56821;BME280;42702;50.178;20.992;2022-08-19T06:12:29;98878.08;;;23.24;68.23
56821;BME280;42702;50.178;20.992;2022-08-19T06:15:09;98877.43;;;23.26;68.40
56821;BME280;42702;50.178;20.992;2022-08-19T06:17:38;98879.73;;;23.29;68.31
56821;BME280;42702;50.178;20.992;2022-08-19T06:20:10;98882.89;;;23.32;68.13
56821;BME280;42702;50.178;20.992;2022-08-19T06:22:43;98893.93;;;23.34;68.06
56821;BME280;42702;50.178;20.992;2022-08-19T06:25:13;98900.81;;;23.38;68.12
56821;BME280;42702;50.178;20.992;2022-08-19T06:27:42;98902.20;;;23.42;68.01
56821;BME280;42702;50.178;20.992;2022-08-19T06:30:30;98901.85;;;23.44;67.99
56821;BME280;42702;50.178;20.992;2022-08-19T06:32:58;98902.86;;;23.48;68.07
56821;BME280;42702;50.178;20.992;2022-08-19T06:35:27;98907.34;;;23.56;67.93
56821;BME280;42702;50.178;20.992;2022-08-19T06:37:57;98906.19;;;23.59;67.79
56821;BME280;42702;50.178;20.992;2022-08-19T06:40:25;98904.64;;;23.61;67.93
56821;BME280;42702;50.178;20.992;2022-08-19T06:42:54;98906.12;;;23.66;67.81
56821;BME280;42702;50.178;20.992;2022-08-19T06:45:27;98903.45;;;23.71;67.81
56821;BME280;42702;50.178;20.992;2022-08-19T06:48:02;98900.95;;;23.74;67.68
56821;BME280;42702;50.178;20.992;2022-08-19T06:50:30;98900.96;;;23.77;67.47
56821;BME280;42702;50.178;20.992;2022-08-19T06:52:58;98899.41;;;23.79;67.51
56821;BME280;42702;50.178;20.992;2022-08-19T06:55:31;98896.23;;;23.82;67.69
56821;BME280;42702;50.178;20.992;2022-08-19T06:58:04;98895.05;;;23.86;67.45
56821;BME280;42702;50.178;20.992;2022-08-19T07:00:33;98897.74;;;23.94;67.41
56821;BME280;42702;50.178;20.992;2022-08-19T07:03:02;98900.25;;;23.99;67.45
56821;BME280;42702;50.178;20.992;2022-08-19T07:05:42;98897.38;;;24.02;67.54
56821;BME280;42702;50.178;20.992;2022-08-19T07:08:13;98903.48;;;24.06;67.30
56821;BME280;42702;50.178;20.992;2022-08-19T07:10:45;98904.61;;;24.11;67.30
56821;BME280;42702;50.178;20.992;2022-08-19T07:13:14;98906.34;;;24.15;67.26
56821;BME280;42702;50.178;20.992;2022-08-19T07:15:42;98905.20;;;24.18;67.40
56821;BME280;42702;50.178;20.992;2022-08-19T07:18:10;98905.36;;;24.21;67.29
56821;BME280;42702;50.178;20.992;2022-08-19T07:20:39;98903.38;;;24.24;67.25
56821;BME280;42702;50.178;20.992;2022-08-19T07:23:09;98902.86;;;24.26;67.25
56821;BME280;42702;50.178;20.992;2022-08-19T07:25:43;98900.93;;;24.31;67.23
56821;BME280;42702;50.178;20.992;2022-08-19T07:28:19;98903.58;;;24.39;67.11
56821;BME280;42702;50.178;20.992;2022-08-19T07:30:52;98905.11;;;24.43;67.00
56821;BME280;42702;50.178;20.992;2022-08-19T07:33:22;98900.20;;;24.47;67.16
56821;BME280;42702;50.178;20.992;2022-08-19T07:35:54;98903.31;;;24.51;66.97
56821;BME280;42702;50.178;20.992;2022-08-19T07:38:23;98903.38;;;24.56;66.87
56821;BME280;42702;50.178;20.992;2022-08-19T07:40:52;98909.71;;;24.59;66.78
56821;BME280;42702;50.178;20.992;2022-08-19T07:43:20;98912.75;;;24.64;66.52
56821;BME280;42702;50.178;20.992;2022-08-19T07:46:01;98915.44;;;24.69;66.38
56821;BME280;42702;50.178;20.992;2022-08-19T07:48:29;98920.51;;;24.73;66.32
56821;BME280;42702;50.178;20.992;2022-08-19T07:51:00;98920.09;;;24.77;66.34
56821;BME280;42702;50.178;20.992;2022-08-19T07:53:32;98922.45;;;24.81;66.37
56821;BME280;42702;50.178;20.992;2022-08-19T07:56:06;98923.66;;;24.87;66.42
56821;BME280;42702;50.178;20.992;2022-08-19T07:58:37;98926.14;;;24.95;66.36
56821;BME280;42702;50.178;20.992;2022-08-19T08:01:08;98931.33;;;24.99;66.09
56821;BME280;42702;50.178;20.992;2022-08-19T08:03:37;98933.13;;;25.04;66.24
56821;BME280;42702;50.178;20.992;2022-08-19T08:06:26;98939.10;;;25.10;65.88
56821;BME280;42702;50.178;20.992;2022-08-19T08:09:17;98939.05;;;25.16;65.87
56821;BME280;42702;50.178;20.992;2022-08-19T08:11:53;98937.56;;;25.22;66.00
56821;BME280;42702;50.178;20.992;2022-08-19T08:16:57;98931.61;;;25.31;66.08
56821;BME280;42702;50.178;20.992;2022-08-19T08:19:27;98928.88;;;25.37;65.92
56821;BME280;42702;50.178;20.992;2022-08-19T08:21:57;98926.12;;;25.40;65.78
56821;BME280;42702;50.178;20.992;2022-08-19T08:24:28;98930.08;;;25.45;65.65
56821;BME280;42702;50.178;20.992;2022-08-19T08:27:00;98930.23;;;25.52;65.70
56821;BME280;42702;50.178;20.992;2022-08-19T08:29:29;98933.00;;;25.61;65.24
56821;BME280;42702;50.178;20.992;2022-08-19T08:32:03;98935.48;;;25.66;65.11
56821;BME280;42702;50.178;20.992;2022-08-19T08:34:42;98941.58;;;25.73;65.03
56821;BME280;42702;50.178;20.992;2022-08-19T08:37:10;98944.00;;;25.79;64.70
56821;BME280;42702;50.178;20.992;2022-08-19T08:39:42;98944.91;;;25.83;64.67
56821;BME280;42702;50.178;20.992;2022-08-19T08:42:25;98941.23;;;25.88;64.75
56821;BME280;42702;50.178;20.992;2022-08-19T08:45:12;98947.31;;;25.92;64.84
56821;BME280;42702;50.178;20.992;2022-08-19T08:47:45;98950.39;;;25.97;64.88
56821;BME280;42702;50.178;20.992;2022-08-19T08:50:20;98946.28;;;26.02;65.18
56821;BME280;42702;50.178;20.992;2022-08-19T08:52:56;98949.42;;;26.07;64.75
56821;BME280;42702;50.178;20.992;2022-08-19T08:55:28;98949.71;;;26.13;64.72
56821;BME280;42702;50.178;20.992;2022-08-19T08:58:06;98945.99;;;26.20;64.84
56821;BME280;42702;50.178;20.992;2022-08-19T09:00:40;98945.96;;;26.27;64.65
56821;BME280;42702;50.178;20.992;2022-08-19T09:03:19;98944.86;;;26.39;64.72
56821;BME280;42702;50.178;20.992;2022-08-19T09:06:00;98939.91;;;26.46;64.57
56821;BME280;42702;50.178;20.992;2022-08-19T09:17:19;98940.30;;;26.83;63.78
56821;BME280;42702;50.178;20.992;2022-08-19T09:22:20;98940.31;;;26.96;63.55
56821;BME280;42702;50.178;20.992;2022-08-19T09:24:54;98943.73;;;27.03;63.38
56821;BME280;42702;50.178;20.992;2022-08-19T09:27:25;98946.80;;;27.09;63.21
56821;BME280;42702;50.178;20.992;2022-08-19T09:30:25;98942.70;;;27.16;62.59
56821;BME280;42702;50.178;20.992;2022-08-19T09:32:54;98938.31;;;27.22;62.98
56821;BME280;42702;50.178;20.992;2022-08-19T09:35:25;98936.79;;;27.30;62.73
56821;BME280;42702;50.178;20.992;2022-08-19T09:37:56;98937.02;;;27.36;62.49
56821;BME280;42702;50.178;20.992;2022-08-19T09:40:27;98933.48;;;27.42;62.76
56821;BME280;42702;50.178;20.992;2022-08-19T09:42:57;98934.19;;;27.49;62.63
56821;BME280;42702;50.178;20.992;2022-08-19T09:45:37;98937.79;;;27.57;61.96
56821;BME280;42702;50.178;20.992;2022-08-19T09:48:06;98936.57;;;27.64;61.37
56821;BME280;42702;50.178;20.992;2022-08-19T09:50:38;98932.39;;;27.73;61.04
56821;BME280;42702;50.178;20.992;2022-08-19T09:53:19;98931.98;;;27.84;61.27
56821;BME280;42702;50.178;20.992;2022-08-19T09:55:55;98926.81;;;27.93;61.67
56821;BME280;42702;50.178;20.992;2022-08-19T09:58:23;98926.86;;;28.01;61.36
56821;BME280;42702;50.178;20.992;2022-08-19T10:00:57;98929.78;;;28.09;61.44
56821;BME280;42702;50.178;20.992;2022-08-19T10:03:28;98929.75;;;28.18;60.86
56821;BME280;42702;50.178;20.992;2022-08-19T10:06:00;98928.13;;;28.29;60.52
56821;BME280;42702;50.178;20.992;2022-08-19T10:08:33;98923.92;;;28.40;61.10
56821;BME280;42702;50.178;20.992;2022-08-19T10:11:03;98922.04;;;28.52;60.74
56821;BME280;42702;50.178;20.992;2022-08-19T10:13:52;98919.59;;;28.64;60.63
56821;BME280;42702;50.178;20.992;2022-08-19T10:16:22;98920.30;;;28.75;59.84
56821;BME280;42702;50.178;20.992;2022-08-19T10:18:53;98920.08;;;28.83;58.96
56821;BME280;42702;50.178;20.992;2022-08-19T10:21:28;98920.48;;;28.91;59.04
56821;BME280;42702;50.178;20.992;2022-08-19T10:24:01;98916.50;;;28.99;59.00
56821;BME280;42702;50.178;20.992;2022-08-19T10:26:36;98914.59;;;29.08;58.72
56821;BME280;42702;50.178;20.992;2022-08-19T10:29:05;98913.70;;;29.13;58.23
56821;BME280;42702;50.178;20.992;2022-08-19T10:31:36;98905.85;;;29.21;58.33
56821;BME280;42702;50.178;20.992;2022-08-19T10:34:24;98904.08;;;29.29;57.42
56821;BME280;42702;50.178;20.992;2022-08-19T10:36:56;98900.43;;;29.31;56.97
56821;BME280;42702;50.178;20.992;2022-08-19T10:39:30;98901.02;;;29.37;57.46
56821;BME280;42702;50.178;20.992;2022-08-19T10:42:10;98897.80;;;29.45;57.50
56821;BME280;42702;50.178;20.992;2022-08-19T10:44:42;98900.73;;;29.52;57.22
56821;BME280;42702;50.178;20.992;2022-08-19T10:47:10;98901.31;;;29.58;56.55
56821;BME280;42702;50.178;20.992;2022-08-19T10:49:52;98903.70;;;29.61;56.40
56821;BME280;42702;50.178;20.992;2022-08-19T10:52:41;98906.61;;;29.69;56.21
56821;BME280;42702;50.178;20.992;2022-08-19T10:55:21;98903.46;;;29.73;55.99
56821;BME280;42702;50.178;20.992;2022-08-19T10:58:18;98904.64;;;29.83;56.19
56821;BME280;42702;50.178;20.992;2022-08-19T11:00:56;98900.33;;;29.91;56.32
56821;BME280;42702;50.178;20.992;2022-08-19T11:03:26;98903.53;;;29.99;55.57
56821;BME280;42702;50.178;20.992;2022-08-19T11:06:07;98899.56;;;30.05;55.12
56821;BME280;42702;50.178;20.992;2022-08-19T11:08:37;98896.44;;;30.11;54.73
56821;BME280;42702;50.178;20.992;2022-08-19T11:11:07;98898.84;;;30.18;55.03
56821;BME280;42702;50.178;20.992;2022-08-19T11:13:38;98896.83;;;30.27;53.94
56821;BME280;42702;50.178;20.992;2022-08-19T11:16:11;98899.59;;;30.34;53.35
56821;BME280;42702;50.178;20.992;2022-08-19T11:18:47;98897.30;;;30.41;53.61
56821;BME280;42702;50.178;20.992;2022-08-19T11:21:38;98895.63;;;30.49;53.75
56821;BME280;42702;50.178;20.992;2022-08-19T11:24:14;98896.30;;;30.57;53.51
56821;BME280;42702;50.178;20.992;2022-08-19T11:26:44;98895.02;;;30.61;53.09
56821;BME280;42702;50.178;20.992;2022-08-19T11:29:12;98893.83;;;30.66;52.60
56821;BME280;42702;50.178;20.992;2022-08-19T11:31:43;98888.05;;;30.72;52.66
56821;BME280;42702;50.178;20.992;2022-08-19T11:34:20;98886.04;;;30.78;52.54
56821;BME280;42702;50.178;20.992;2022-08-19T11:36:50;98875.57;;;30.86;52.54
56821;BME280;42702;50.178;20.992;2022-08-19T11:39:21;98876.86;;;30.93;52.11
56821;BME280;42702;50.178;20.992;2022-08-19T11:41:50;98870.66;;;31.02;52.24
56821;BME280;42702;50.178;20.992;2022-08-19T11:44:18;98866.93;;;31.08;51.89
56821;BME280;42702;50.178;20.992;2022-08-19T11:46:47;98866.55;;;31.13;51.68
56821;BME280;42702;50.178;20.992;2022-08-19T11:49:17;98867.38;;;31.19;51.72
56821;BME280;42702;50.178;20.992;2022-08-19T11:51:46;98866.37;;;31.23;51.32
56821;BME280;42702;50.178;20.992;2022-08-19T11:54:16;98860.07;;;31.27;51.18
56821;BME280;42702;50.178;20.992;2022-08-19T11:56:45;98858.60;;;31.29;50.48
56821;BME280;42702;50.178;20.992;2022-08-19T11:59:14;98859.38;;;31.33;50.40
56821;BME280;42702;50.178;20.992;2022-08-19T12:01:42;98854.59;;;31.39;50.37
56821;BME280;42702;50.178;20.992;2022-08-19T12:04:11;98852.95;;;31.44;49.93
56821;BME280;42702;50.178;20.992;2022-08-19T12:06:40;98851.94;;;31.47;49.94
56821;BME280;42702;50.178;20.992;2022-08-19T12:09:10;98848.61;;;31.49;49.83
56821;BME280;42702;50.178;20.992;2022-08-19T12:11:39;98847.05;;;31.50;49.88
56821;BME280;42702;50.178;20.992;2022-08-19T12:14:12;98846.91;;;31.51;49.98
56821;BME280;42702;50.178;20.992;2022-08-19T12:16:44;98844.14;;;31.54;50.23
56821;BME280;42702;50.178;20.992;2022-08-19T12:19:19;98840.78;;;31.55;49.70
56821;BME280;42702;50.178;20.992;2022-08-19T12:21:49;98838.11;;;31.55;49.57
56821;BME280;42702;50.178;20.992;2022-08-19T12:24:18;98833.77;;;31.53;49.45
56821;BME280;42702;50.178;20.992;2022-08-19T12:26:51;98831.49;;;31.52;49.35
56821;BME280;42702;50.178;20.992;2022-08-19T12:29:21;98826.91;;;31.53;49.37
56821;BME280;42702;50.178;20.992;2022-08-19T12:31:58;98826.05;;;31.53;49.41
56821;BME280;42702;50.178;20.992;2022-08-19T12:34:29;98819.38;;;31.55;49.02
56821;BME280;42702;50.178;20.992;2022-08-19T12:37:03;98819.52;;;31.55;48.51
56821;BME280;42702;50.178;20.992;2022-08-19T12:39:38;98822.02;;;31.57;48.67
56821;BME280;42702;50.178;20.992;2022-08-19T12:42:07;98821.88;;;31.58;48.32
56821;BME280;42702;50.178;20.992;2022-08-19T12:44:38;98820.27;;;31.58;47.88
56821;BME280;42702;50.178;20.992;2022-08-19T12:47:11;98826.66;;;31.59;47.96
56821;BME280;42702;50.178;20.992;2022-08-19T12:49:40;98826.06;;;31.60;48.00
56821;BME280;42702;50.178;20.992;2022-08-19T12:52:24;98828.73;;;31.58;47.53
56821;BME280;42702;50.178;20.992;2022-08-19T12:54:56;98827.86;;;31.58;47.39
56821;BME280;42702;50.178;20.992;2022-08-19T12:57:27;98825.34;;;31.56;47.78
56821;BME280;42702;50.178;20.992;2022-08-19T13:00:12;98825.81;;;31.55;47.79
56821;BME280;42702;50.178;20.992;2022-08-19T13:02:42;98823.32;;;31.53;47.09
56821;BME280;42702;50.178;20.992;2022-08-19T13:05:18;98819.52;;;31.50;47.42
56821;BME280;42702;50.178;20.992;2022-08-19T13:07:52;98821.44;;;31.46;47.03
56821;BME280;42702;50.178;20.992;2022-08-19T13:10:28;98821.73;;;31.45;46.23
56821;BME280;42702;50.178;20.992;2022-08-19T13:12:56;98824.40;;;31.45;46.47
56821;BME280;42702;50.178;20.992;2022-08-19T13:15:28;98830.19;;;31.47;46.77
56821;BME280;42702;50.178;20.992;2022-08-19T13:17:58;98830.25;;;31.50;46.72
56821;BME280;42702;50.178;20.992;2022-08-19T13:20:27;98833.91;;;31.52;46.00
56821;BME280;42702;50.178;20.992;2022-08-19T13:22:56;98834.04;;;31.54;45.84
56821;BME280;42702;50.178;20.992;2022-08-19T13:25:25;98831.45;;;31.55;45.87
56821;BME280;42702;50.178;20.992;2022-08-19T13:27:54;98837.25;;;31.54;45.92
56821;BME280;42702;50.178;20.992;2022-08-19T13:30:23;98836.56;;;31.56;46.10
56821;BME280;42702;50.178;20.992;2022-08-19T13:33:10;98832.04;;;31.59;45.99